Time;durP1;ratioP1;P1;durP2;ratioP2;P2;SDS_P1;SDS_P2;PMS_P1;PMS_P2;Temp;Humidity;BMP_temperature;BMP_pressure;BME280_temperature;BME280_humidity;BME280_pressure;Samples;Min_cycle;Max_cycle;Signal;HPM_P1;HPM_P2
2022/04/23 00:01:43;;;;;;;7.47;2.38;;;;;;;16.26;42.85;97036.84;5091135;28;20035;-50
2022/04/23 00:04:11;;;;;;;3.95;1.13;;;;;;;16.29;42.73;97030.97;5091096;28;20117;-50
2022/04/23 00:06:37;;;;;;;7.80;1.65;;;;;;;16.36;42.91;97036.75;5091023;28;20102;-50
2022/04/23 00:09:04;;;;;;;4.20;1.20;;;;;;;16.46;42.63;97030.59;5092249;28;20024;-51
2022/04/23 00:11:30;;;;;;;4.93;1.25;;;;;;;16.57;42.38;97028.63;5091057;28;20028;-49
2022/04/23 00:13:56;;;;;;;2.38;1.08;;;;;;;16.68;42.15;97029.28;5092535;28;20462;-51
2022/04/23 00:16:23;;;;;;;3.30;1.60;;;;;;;16.74;42.05;97022.88;5090874;28;20027;-50
2022/04/23 00:18:50;;;;;;;3.22;1.27;;;;;;;16.70;42.29;97014.72;5090851;28;20024;-49
2022/04/23 00:21:16;;;;;;;5.03;1.20;;;;;;;16.74;42.24;97017.56;5090219;28;20038;-50
2022/04/23 00:23:41;;;;;;;9.43;1.77;;;;;;;16.83;42.20;97021.22;5090790;28;20020;-50
2022/04/23 00:26:07;;;;;;;6.32;1.67;;;;;;;16.97;42.09;97014.19;5090735;28;20054;-51
2022/04/23 00:28:33;;;;;;;8.13;2.95;;;;;;;17.21;42.07;97012.59;5092081;28;20024;-49
2022/04/23 00:30:58;;;;;;;5.63;1.20;;;;;;;17.40;41.49;97009.94;5090581;28;20059;-49
2022/04/23 00:33:24;;;;;;;5.75;2.13;;;;;;;17.45;41.33;97012.56;5090690;28;20055;-51
2022/04/23 00:35:50;;;;;;;5.43;1.33;;;;;;;17.54;41.32;97011.59;5091935;28;20563;-51
2022/04/23 00:38:17;;;;;;;12.18;1.60;;;;;;;17.67;40.91;97019.94;5091661;28;20079;-49
2022/04/23 00:40:44;;;;;;;3.83;1.30;;;;;;;17.53;40.86;97020.66;5090557;28;20402;-50
2022/04/23 00:43:30;;;;;;;6.30;1.45;;;;;;;17.35;41.58;97016.13;5091957;28;20020;-51
2022/04/23 00:45:57;;;;;;;4.22;1.40;;;;;;;17.29;42.06;97019.91;5091877;28;20387;-50
2022/04/23 00:48:26;;;;;;;4.78;1.00;;;;;;;17.33;41.89;97013.75;5090512;28;20149;-50
2022/04/23 00:50:55;;;;;;;5.53;1.45;;;;;;;17.38;41.90;97010.22;5091693;28;20016;-50
2022/04/23 00:53:22;;;;;;;4.55;1.30;;;;;;;17.27;41.62;97012.25;5091798;28;20052;-50
2022/04/23 00:55:48;;;;;;;7.32;2.15;;;;;;;17.08;42.21;97003.47;5091672;28;20032;-50
2022/04/23 00:58:17;;;;;;;14.65;2.95;;;;;;;17.04;42.85;97008.53;5090453;28;20031;-50
2022/04/23 01:00:44;;;;;;;4.15;1.58;;;;;;;17.07;42.57;97001.88;5090373;28;20022;-50
2022/04/23 01:03:13;;;;;;;22.15;16.92;;;;;;;17.06;42.12;97003.72;5090377;28;20047;-50
2022/04/23 01:05:44;;;;;;;37.75;27.17;;;;;;;16.92;42.83;97010.78;5091614;28;20013;-50
2022/04/23 01:08:15;;;;;;;9.68;4.15;;;;;;;16.93;42.85;96999.91;5091681;28;20026;-49
2022/04/23 01:10:44;;;;;;;17.48;9.95;;;;;;;17.09;42.85;96994.44;5091573;28;20390;-49
2022/04/23 01:13:14;;;;;;;11.02;3.63;;;;;;;17.19;42.26;96998.84;5090336;28;20048;-49
2022/04/23 01:15:59;;;;;;;5.18;1.70;;;;;;;17.27;42.11;97000.84;5091574;28;20059;-50
2022/04/23 01:18:25;;;;;;;2.85;1.45;;;;;;;17.10;42.35;97002.13;5091683;28;20032;-49
2022/04/23 01:20:52;;;;;;;4.50;1.30;;;;;;;16.90;42.46;97005.78;5091518;28;20038;-50
2022/04/23 01:23:18;;;;;;;6.47;1.88;;;;;;;16.69;43.10;96999.88;5091538;28;20505;-51
2022/04/23 01:25:44;;;;;;;8.77;1.55;;;;;;;16.55;43.59;97002.41;5090171;28;20111;-50
2022/04/23 01:28:10;;;;;;;6.88;2.05;;;;;;;16.47;43.89;96992.44;5091500;28;20047;-50
2022/04/23 01:30:36;;;;;;;8.55;2.47;;;;;;;16.45;43.95;96991.91;5091354;28;20099;-50
2022/04/23 01:33:02;;;;;;;8.77;4.60;;;;;;;16.44;44.27;96985.06;5094343;28;20055;-50
2022/04/23 01:35:29;;;;;;;10.57;3.72;;;;;;;16.52;44.38;96975.69;5095190;28;20020;-50
2022/04/23 01:37:55;;;;;;;5.32;1.60;;;;;;;16.64;43.82;96978.75;5094905;28;20126;-50
2022/04/23 01:40:21;;;;;;;6.35;1.27;;;;;;;16.71;42.93;96978.41;5095170;28;20549;-51
2022/04/23 01:42:47;;;;;;;5.68;1.40;;;;;;;16.70;43.02;96975.00;5093773;28;20402;-50
2022/04/23 01:45:13;;;;;;;16.08;4.10;;;;;;;16.77;43.44;96977.28;5095006;28;20062;-51
2022/04/23 01:47:39;;;;;;;4.75;1.60;;;;;;;16.90;42.95;96974.00;5095047;28;20017;-49
2022/04/23 01:50:05;;;;;;;5.05;1.33;;;;;;;17.01;42.36;96974.66;5093529;28;20028;-50
2022/04/23 01:52:31;;;;;;;3.72;1.23;;;;;;;16.97;41.84;96981.59;5094922;28;20032;-50
2022/04/23 01:54:57;;;;;;;5.15;1.27;;;;;;;16.92;42.10;96969.22;5094914;28;20116;-50
2022/04/23 01:57:22;;;;;;;4.57;1.25;;;;;;;16.94;41.86;96969.72;5093535;28;20027;-49
2022/04/23 01:59:48;;;;;;;7.15;1.60;;;;;;;16.89;41.92;96977.72;5093479;28;20044;-50
2022/04/23 02:02:14;;;;;;;8.30;2.22;;;;;;;16.85;41.74;96983.88;5093398;28;20115;-51
2022/04/23 02:04:39;;;;;;;11.82;1.85;;;;;;;16.81;41.83;96982.81;5093341;28;20401;-50
2022/04/23 02:07:05;;;;;;;5.30;1.50;;;;;;;16.76;41.77;96991.59;5093358;28;20031;-49
2022/04/23 02:09:33;;;;;;;2.67;1.38;;;;;;;16.65;41.97;96979.53;5093193;28;20065;-50
2022/04/23 02:11:58;;;;;;;4.93;1.40;;;;;;;16.48;42.53;96975.47;5094554;28;20110;-49
2022/04/23 02:14:24;;;;;;;2.88;1.17;;;;;;;16.32;42.69;96966.13;5093227;28;20046;-50
2022/04/23 02:16:50;;;;;;;3.33;1.52;;;;;;;16.19;43.05;96954.31;5094503;28;20099;-51
2022/04/23 02:19:16;;;;;;;9.13;2.03;;;;;;;16.14;43.27;96968.38;5093073;28;20020;-49
2022/04/23 02:21:43;;;;;;;4.72;1.45;;;;;;;16.13;43.26;96969.44;5092967;28;20119;-50
2022/04/23 02:24:09;;;;;;;1.83;1.17;;;;;;;16.12;43.32;96961.81;5094321;28;20572;-50
2022/04/23 02:26:35;;;;;;;5.88;1.92;;;;;;;16.05;43.47;96956.81;5092898;28;20020;-50
2022/04/23 02:29:00;;;;;;;4.15;1.40;;;;;;;16.05;43.48;96946.22;5092889;28;20104;-50
2022/04/23 02:31:26;;;;;;;3.13;1.33;;;;;;;16.08;43.54;96950.19;5092775;28;20120;-51
2022/04/23 02:33:52;;;;;;;4.35;1.17;;;;;;;16.17;43.21;96948.50;5094102;28;20493;-49
2022/04/23 02:36:17;;;;;;;2.13;1.10;;;;;;;16.13;43.10;96948.25;5093779;28;20017;-50
2022/04/23 02:38:43;;;;;;;3.63;1.35;;;;;;;16.04;43.34;96942.00;5094132;28;20573;-51
2022/04/23 02:41:10;;;;;;;8.00;1.15;;;;;;;16.05;42.56;96925.06;5093979;28;20034;-50
2022/04/23 02:43:38;;;;;;;6.30;1.75;;;;;;;16.02;42.26;96922.97;5093351;28;20045;-50
2022/04/23 02:46:07;;;;;;;8.65;1.30;;;;;;;16.03;42.02;96916.59;5093895;28;20055;-50
2022/04/23 02:48:32;;;;;;;1.90;1.13;;;;;;;16.09;41.61;96931.38;5093809;28;20020;-51
2022/04/23 02:50:58;;;;;;;3.30;1.40;;;;;;;16.11;41.63;96928.44;5092408;28;20085;-50
2022/04/23 02:53:24;;;;;;;5.22;1.27;;;;;;;16.05;41.46;96927.69;5093765;28;20020;-50
2022/04/23 02:55:51;;;;;;;5.95;1.48;;;;;;;16.11;41.12;96926.59;5093653;28;20466;-50
2022/04/23 02:58:17;;;;;;;3.28;1.23;;;;;;;16.13;41.31;96928.97;5093655;28;20179;-50
2022/04/23 03:00:43;;;;;;;3.35;1.65;;;;;;;16.14;41.49;96925.25;5092231;28;20099;-50
2022/04/23 03:03:09;;;;;;;7.03;1.70;;;;;;;16.11;41.50;96915.22;5092221;28;20047;-50
2022/04/23 03:05:36;;;;;;;2.70;1.20;;;;;;;16.14;41.39;96915.47;5093823;28;20116;-50
2022/04/23 03:08:02;;;;;;;6.45;1.27;;;;;;;16.26;41.06;96917.72;5092233;28;20024;-49
2022/04/23 03:10:29;;;;;;;1.55;1.20;;;;;;;16.26;40.82;96908.97;5091972;28;20619;-50
2022/04/23 03:12:57;;;;;;;8.75;2.25;;;;;;;16.31;40.94;96908.94;5092080;28;20393;-50
2022/04/23 03:15:28;;;;;;;4.00;1.77;;;;;;;16.42;40.46;96915.72;5093371;28;20031;-49
2022/04/23 03:18:04;;;;;;;4.82;1.40;;;;;;;16.40;40.83;96911.75;5093328;28;20024;-49
2022/04/23 03:20:31;;;;;;;5.70;1.63;;;;;;;16.38;40.29;96920.00;5093148;28;20679;-50
2022/04/23 03:22:56;;;;;;;6.18;1.38;;;;;;;16.41;40.21;96905.41;5093772;28;20041;-50
2022/04/23 03:25:22;;;;;;;2.28;1.10;;;;;;;16.41;39.60;96906.19;5093142;28;20024;-50
2022/04/23 03:27:48;;;;;;;6.95;1.63;;;;;;;16.42;39.40;96905.13;5093044;28;20513;-49
2022/04/23 03:30:15;;;;;;;4.03;1.35;;;;;;;16.42;39.19;96899.00;5091626;28;20024;-50
2022/04/23 03:32:42;;;;;;;5.63;1.48;;;;;;;16.42;39.56;96906.94;5092972;28;20386;-49
2022/04/23 03:35:08;;;;;;;3.50;1.17;;;;;;;16.48;39.08;96908.47;5092959;28;20028;-50
2022/04/23 03:37:38;;;;;;;5.53;1.65;;;;;;;16.54;39.20;96902.03;5092706;28;20078;-50
2022/04/23 03:40:08;;;;;;;3.47;1.10;;;;;;;16.66;38.72;96896.34;5091590;28;20117;-51
2022/04/23 03:42:35;;;;;;;3.40;1.25;;;;;;;16.70;38.27;96887.56;5092860;28;20032;-51
2022/04/23 03:45:05;;;;;;;3.58;1.38;;;;;;;16.78;38.09;96888.78;5092811;28;20016;-50
2022/04/23 03:47:32;;;;;;;4.57;1.23;;;;;;;16.80;37.99;96886.63;5091430;28;20405;-50
2022/04/23 03:50:06;;;;;;;3.65;1.30;;;;;;;16.85;37.68;96888.47;5092628;28;20054;-51
2022/04/23 03:52:32;;;;;;;5.82;1.33;;;;;;;16.89;37.37;96877.03;5092630;28;20036;-50
2022/04/23 03:54:58;;;;;;;3.97;1.10;;;;;;;16.91;37.16;96874.88;5090690;28;20428;-50
2022/04/23 03:57:24;;;;;;;6.53;2.60;;;;;;;16.94;36.93;96865.56;5090922;28;20024;-50
2022/04/23 03:59:50;;;;;;;6.43;1.52;;;;;;;16.85;37.17;96862.75;5091198;28;20062;-50
2022/04/23 04:02:15;;;;;;;3.25;1.10;;;;;;;16.82;37.47;96863.34;5092476;28;20449;-50
2022/04/23 04:04:42;;;;;;;1.33;1.00;;;;;;;16.85;37.26;96865.41;5091099;28;20016;-49
2022/04/23 04:07:08;;;;;;;4.75;1.55;;;;;;;16.79;37.39;96866.53;5092420;28;20024;-50
2022/04/23 04:09:35;;;;;;;4.88;1.30;;;;;;;16.76;37.67;96867.09;5090927;28;20016;-50
2022/04/23 04:12:01;;;;;;;4.63;1.20;;;;;;;16.68;37.55;96862.44;5092269;28;20028;-50
2022/04/23 04:14:28;;;;;;;5.43;1.27;;;;;;;16.64;37.87;96874.66;5092270;28;20023;-50
2022/04/23 04:16:54;;;;;;;4.30;1.30;;;;;;;16.55;37.90;96858.63;5092239;28;20024;-50
2022/04/23 04:19:20;;;;;;;5.28;1.45;;;;;;;16.49;38.06;96865.06;5092204;28;20066;-50
2022/04/23 04:21:47;;;;;;;7.97;2.03;;;;;;;16.52;37.89;96870.56;5090783;28;20024;-50
2022/04/23 04:24:16;;;;;;;3.28;1.13;;;;;;;16.53;38.10;96869.50;5092136;28;20016;-50
2022/04/23 04:26:43;;;;;;;6.70;1.45;;;;;;;16.55;38.24;96877.16;5092056;28;20517;-50
2022/04/23 04:29:10;;;;;;;3.17;1.30;;;;;;;16.60;38.06;96876.31;5092029;28;20020;-49
2022/04/23 04:31:49;;;;;;;8.43;2.00;;;;;;;16.60;37.88;96877.13;5092059;28;20016;-50
2022/04/23 04:34:16;;;;;;;2.50;1.00;;;;;;;16.67;38.18;96882.06;5090793;28;20028;-50
2022/04/23 04:36:42;;;;;;;4.65;1.85;;;;;;;16.67;37.95;96887.34;5091732;28;20042;-51
2022/04/23 04:39:08;;;;;;;4.20;1.38;;;;;;;16.58;38.19;96882.69;5092000;28;20114;-50
2022/04/23 04:41:35;;;;;;;7.90;1.38;;;;;;;16.54;38.50;96880.88;5091997;28;20485;-50
2022/04/23 04:44:02;;;;;;;9.23;2.03;;;;;;;16.55;38.41;96877.16;5091924;28;20058;-50
2022/04/23 04:46:28;;;;;;;8.10;3.03;;;;;;;16.62;38.77;96884.75;5091853;28;20016;-49
2022/04/23 04:48:54;;;;;;;3.63;1.75;;;;;;;16.63;39.77;96878.41;5091897;28;20393;-50
2022/04/23 04:51:19;;;;;;;3.33;1.48;;;;;;;16.49;40.51;96888.88;5090409;28;20103;-50
2022/04/23 04:53:45;;;;;;;3.95;1.30;;;;;;;16.39;40.28;96881.84;5091839;28;20036;-50
2022/04/23 04:56:11;;;;;;;3.65;1.25;;;;;;;16.41;39.82;96879.69;5090506;28;20443;-50
2022/04/23 04:58:37;;;;;;;3.30;1.67;;;;;;;16.46;39.80;96882.31;5091755;28;20416;-50
2022/04/23 05:01:03;;;;;;;4.70;1.65;;;;;;;16.49;39.79;96884.38;5091767;28;20058;-49
2022/04/23 05:03:29;;;;;;;7.88;1.70;;;;;;;16.54;39.83;96884.31;5091740;28;20024;-50
2022/04/23 05:05:55;;;;;;;4.82;1.50;;;;;;;16.62;39.64;96879.44;5090335;28;20446;-50
2022/04/23 05:08:20;;;;;;;4.25;1.50;;;;;;;16.58;39.74;96885.34;5095319;28;20028;-49
2022/04/23 05:10:47;;;;;;;5.68;1.52;;;;;;;16.61;39.63;96886.63;5095704;28;20393;-50
2022/04/23 05:13:13;;;;;;;5.47;1.58;;;;;;;16.63;40.05;96887.13;5095723;28;20498;-50
2022/04/23 05:15:39;;;;;;;3.92;1.70;;;;;;;16.70;41.37;96892.88;5094340;28;20028;-49
2022/04/23 05:18:05;;;;;;;4.22;1.80;;;;;;;16.62;42.58;96895.34;5095635;28;20059;-50
2022/04/23 05:20:30;;;;;;;4.28;1.70;;;;;;;16.45;43.30;96898.47;5095476;28;20031;-50
2022/04/23 05:22:56;;;;;;;4.18;2.20;;;;;;;16.27;44.24;96911.34;5094191;28;20493;-49
2022/04/23 05:25:22;;;;;;;5.07;2.50;;;;;;;16.12;44.50;96907.00;5095445;28;20043;-50
2022/04/23 05:27:48;;;;;;;4.07;2.00;;;;;;;16.09;44.82;96920.00;5095391;28;20092;-49
2022/04/23 05:30:13;;;;;;;6.82;2.20;;;;;;;16.09;45.06;96912.06;5095253;28;20020;-49
2022/04/23 05:32:39;;;;;;;6.28;2.40;;;;;;;16.10;44.90;96911.00;5094068;28;20030;-49
2022/04/23 05:35:05;;;;;;;4.97;1.80;;;;;;;16.13;45.03;96913.09;5095286;28;20031;-50
2022/04/23 05:37:31;;;;;;;7.18;2.40;;;;;;;16.18;44.68;96913.03;5095195;28;20093;-50
2022/04/23 05:39:57;;;;;;;3.97;1.73;;;;;;;16.32;43.20;96923.75;5095238;28;20031;-49
2022/04/23 05:42:22;;;;;;;6.13;2.13;;;;;;;16.42;42.87;96913.06;5095114;28;20023;-50
2022/04/23 05:44:48;;;;;;;3.75;1.60;;;;;;;16.55;42.57;96916.88;5093830;28;20059;-50
2022/04/23 05:47:14;;;;;;;7.30;1.92;;;;;;;16.74;41.93;96917.72;5095074;28;20027;-50
2022/04/23 05:49:39;;;;;;;3.95;1.73;;;;;;;16.95;41.08;96905.03;5094953;28;20079;-50
2022/04/23 05:52:05;;;;;;;5.90;1.70;;;;;;;17.12;40.40;96904.56;5094941;28;20402;-49
2022/04/23 05:54:31;;;;;;;5.70;2.38;;;;;;;17.29;40.76;96905.91;5093616;28;20077;-50
2022/04/23 05:56:57;;;;;;;9.65;2.33;;;;;;;17.46;40.06;96905.38;5094832;28;20027;-50
2022/04/23 05:59:28;;;;;;;5.00;1.75;;;;;;;17.59;39.75;96909.97;5093505;28;20128;-49
2022/04/23 06:01:55;;;;;;;6.55;2.25;;;;;;;17.89;39.35;96894.66;5094798;28;20027;-49
2022/04/23 06:04:26;;;;;;;7.05;1.83;;;;;;;18.22;38.54;96897.25;5094684;28;20056;-50
2022/04/23 06:06:52;;;;;;;3.45;1.50;;;;;;;18.45;37.71;96900.78;5094704;28;20483;-50
2022/04/23 06:09:18;;;;;;;10.10;3.03;;;;;;;18.83;37.20;96900.59;5094586;28;20052;-48
2022/04/23 06:11:43;;;;;;;5.10;2.30;;;;;;;19.23;36.12;96893.63;5094559;28;20387;-50
2022/04/23 06:14:09;;;;;;;5.10;1.92;;;;;;;19.34;35.95;96888.88;5093172;28;20024;-51
2022/04/23 06:16:36;;;;;;;6.15;1.83;;;;;;;19.30;35.88;96893.22;5094529;28;20016;-50
2022/04/23 06:19:02;;;;;;;3.90;2.53;;;;;;;19.15;36.24;96894.34;5093504;28;20030;-51
2022/04/23 06:21:28;;;;;;;4.22;1.27;;;;;;;19.13;36.28;96893.84;5092947;28;20032;-50
2022/04/23 06:23:53;;;;;;;5.82;1.98;;;;;;;19.13;36.15;96893.84;5093079;28;20032;-50
2022/04/23 06:26:19;;;;;;;4.43;1.30;;;;;;;19.09;36.11;96888.34;5094265;28;20622;-50
2022/04/23 06:28:45;;;;;;;5.07;1.80;;;;;;;19.06;36.26;96888.97;5094226;28;20024;-50
2022/04/23 06:31:10;;;;;;;3.60;1.35;;;;;;;19.22;36.36;96891.28;5094134;28;20068;-50
2022/04/23 06:33:36;;;;;;;5.80;1.73;;;;;;;19.39;36.27;96885.31;5094149;28;20024;-50
2022/04/23 06:36:02;;;;;;;7.30;2.45;;;;;;;19.73;35.58;96882.91;5092766;28;20027;-49
2022/04/23 06:38:28;;;;;;;7.57;2.63;;;;;;;20.45;35.06;96886.38;5093891;28;20152;-49
2022/04/23 06:40:54;;;;;;;6.78;1.95;;;;;;;21.29;33.00;96875.72;5094058;28;20444;-51
2022/04/23 06:43:19;;;;;;;11.00;2.20;;;;;;;21.93;32.04;96869.66;5092636;28;20016;-50
2022/04/23 06:45:45;;;;;;;5.22;1.90;;;;;;;22.53;30.98;96868.66;5093938;28;20517;-50
2022/04/23 06:48:11;;;;;;;3.15;1.73;;;;;;;23.01;30.68;96863.19;5093872;28;20024;-50
2022/04/23 06:50:37;;;;;;;5.55;2.15;;;;;;;23.41;29.59;96857.38;5092462;28;20051;-51
2022/04/23 06:53:04;;;;;;;5.13;2.13;;;;;;;23.70;28.93;96851.09;5093838;28;20028;-51
2022/04/23 06:55:30;;;;;;;5.15;1.70;;;;;;;23.95;28.44;96851.97;5093713;28;20027;-51
2022/04/23 06:57:57;;;;;;;5.35;1.67;;;;;;;24.28;27.91;96857.22;5093737;28;20052;-50
2022/04/23 07:00:23;;;;;;;4.18;1.52;;;;;;;24.78;27.49;96849.97;5092327;28;20101;-51
2022/04/23 07:02:51;;;;;;;4.85;1.45;;;;;;;25.30;26.89;96853.78;5093943;28;20405;-51
2022/04/23 07:05:18;;;;;;;6.65;2.08;;;;;;;25.80;26.57;96846.28;5093510;28;20502;-51
2022/04/23 07:08:01;;;;;;;4.75;2.25;;;;;;;26.47;25.80;96843.66;5093520;28;20024;-50
2022/04/23 07:10:29;;;;;;;6.13;2.00;;;;;;;26.86;24.53;96841.06;5093375;28;20032;-50
2022/04/23 07:12:56;;;;;;;23.55;21.23;;;;;;;27.00;24.58;96837.91;5092097;28;20509;-51
2022/04/23 07:15:23;;;;;;;10.98;5.95;;;;;;;27.28;24.33;96832.34;5092038;28;20687;-51
2022/04/23 07:17:51;;;;;;;21.27;4.40;;;;;;;27.61;23.48;96828.34;5093299;28;20497;-50
2022/04/23 07:20:18;;;;;;;8.35;2.58;;;;;;;27.98;23.29;96831.31;5093253;28;20537;-51
2022/04/23 07:24:03;;;;;;;9.32;2.47;;;;;;;27.55;23.29;96825.16;5093258;28;20020;-51
2022/04/23 07:25:35;;;;;;;7.00;2.00;;;;;;;26.64;24.14;96837.16;5092923;28;20122;-51
2022/04/23 07:28:02;;;;;;;3.97;2.00;;;;;;;25.46;25.40;96835.81;5093182;28;20032;-51
2022/04/23 07:30:28;;;;;;;5.05;1.67;;;;;;;24.43;26.87;96842.41;5091520;28;20126;-52
2022/04/23 07:32:55;;;;;;;9.52;3.22;;;;;;;24.49;27.41;96842.97;5093022;28;20066;-50
2022/04/23 07:38:13;;;;;;;5.10;1.73;;;;;;;27.26;24.22;96834.59;5092812;28;20109;-51
2022/04/23 07:40:40;;;;;;;4.82;1.88;;;;;;;27.54;23.11;96828.97;5092875;28;20498;-51
2022/04/23 07:43:14;;;;;;;7.60;2.50;;;;;;;27.77;23.25;96833.59;5092853;28;20027;-50
2022/04/23 07:45:42;;;;;;;6.47;1.77;;;;;;;27.73;22.89;96827.38;5091504;28;20028;-51
2022/04/23 07:48:09;;;;;;;7.53;2.40;;;;;;;27.13;23.78;96822.41;5091387;28;20042;-51
2022/04/23 07:50:39;;;;;;;5.78;1.60;;;;;;;27.10;23.63;96831.97;5092630;28;20016;-51
2022/04/23 07:53:05;;;;;;;6.55;1.70;;;;;;;26.88;23.65;96839.63;5092633;28;20020;-51
2022/04/23 07:55:37;;;;;;;8.10;1.67;;;;;;;26.00;24.35;96839.13;5091265;28;20020;-49
2022/04/23 07:58:09;;;;;;;8.50;2.55;;;;;;;24.43;26.34;96841.63;5092630;28;20486;-51
2022/04/23 08:00:35;;;;;;;5.35;1.77;;;;;;;23.29;27.97;96836.69;5092589;28;20085;-50
2022/04/23 08:03:05;;;;;;;4.60;1.58;;;;;;;22.41;29.12;96852.53;5092472;28;20030;-50
2022/04/23 08:05:32;;;;;;;6.00;1.88;;;;;;;21.69;31.13;96857.66;5092403;28;20024;-50
2022/04/23 08:07:59;;;;;;;8.90;2.80;;;;;;;21.37;33.56;96858.91;5092360;28;20077;-50
2022/04/23 08:10:25;;;;;;;10.40;7.57;;;;;;;21.14;32.36;96855.63;5090936;28;20111;-50
2022/04/23 08:12:51;;;;;;;14.48;6.03;;;;;;;20.81;32.04;96857.97;5092339;28;20418;-50
2022/04/23 08:15:17;;;;;;;14.40;4.22;;;;;;;20.67;32.58;96866.09;5092262;28;20020;-50
2022/04/23 08:17:42;;;;;;;16.90;12.57;;;;;;;20.77;32.82;96870.34;5092253;28;20028;-51
2022/04/23 08:20:09;;;;;;;6.57;3.67;;;;;;;20.82;32.53;96870.97;5092165;28;20410;-50
2022/04/23 08:22:35;;;;;;;9.57;2.42;;;;;;;20.91;32.26;96869.09;5092263;28;20032;-50
2022/04/23 08:25:02;;;;;;;8.65;1.95;;;;;;;20.90;32.51;96861.41;5092093;28;20024;-51
2022/04/23 08:27:28;;;;;;;3.70;1.70;;;;;;;20.87;33.05;96862.81;5092288;28;20028;-50
2022/04/23 08:32:38;;;;;;;17.88;2.85;;;;;;;20.39;34.60;96860.97;5092046;28;20081;-50
2022/04/23 08:35:05;;;;;;;13.68;2.70;;;;;;;20.15;34.83;96854.13;5092007;28;20024;-50
2022/04/23 08:37:32;;;;;;;9.63;2.65;;;;;;;19.82;36.05;96867.00;5091754;28;20044;-49
2022/04/23 08:39:58;;;;;;;20.92;5.05;;;;;;;19.63;35.97;96863.72;5091943;28;20056;-50
2022/04/23 08:42:24;;;;;;;16.17;6.00;;;;;;;19.74;35.70;96859.75;5090300;28;20035;-50
2022/04/23 08:44:53;;;;;;;2.40;1.35;;;;;;;19.79;35.55;96854.28;5091941;28;20021;-50
2022/04/23 08:47:22;;;;;;;11.68;3.88;;;;;;;19.75;36.50;96854.09;5090563;28;20024;-50
2022/04/23 08:49:56;;;;;;;6.60;2.03;;;;;;;19.73;35.45;96853.63;5090477;28;20027;-50
2022/04/23 08:52:32;;;;;;;8.27;4.93;;;;;;;19.81;35.32;96856.66;5090544;28;20459;-50
2022/04/23 08:55:04;;;;;;;12.65;2.72;;;;;;;19.97;34.84;96857.81;5091846;28;20106;-49
2022/04/23 08:57:30;;;;;;;12.88;4.53;;;;;;;20.07;34.68;96857.56;5090487;28;20459;-50
2022/04/23 08:59:56;;;;;;;7.53;2.97;;;;;;;20.12;34.54;96851.28;5091766;28;20085;-50
2022/04/23 09:02:23;;;;;;;5.43;2.55;;;;;;;20.08;34.42;96853.81;5091745;28;20020;-49
2022/04/23 09:04:50;;;;;;;9.27;1.95;;;;;;;20.08;34.14;96847.69;5091667;28;20398;-50
2022/04/23 09:07:29;;;;;;;7.35;3.67;;;;;;;20.13;34.69;96850.22;5090401;28;20020;-50
2022/04/23 09:09:57;;;;;;;16.20;5.72;;;;;;;20.09;35.54;96847.38;5091567;28;20017;-50
2022/04/23 09:12:25;;;;;;;10.98;3.55;;;;;;;20.13;35.38;96845.66;5091627;28;20032;-50
2022/04/23 09:14:52;;;;;;;15.27;5.50;;;;;;;20.15;35.23;96848.03;5091618;28;20020;-49
2022/04/23 09:25:44;;;;;;;15.88;7.15;;;;;;;20.31;34.16;96841.19;5091805;28;20043;-50
2022/04/23 09:28:14;;;;;;;11.75;6.10;;;;;;;20.57;34.03;96845.03;5091495;28;20027;-50
2022/04/23 09:30:40;;;;;;;9.15;3.55;;;;;;;20.58;33.57;96847.38;5090131;28;20024;-50
2022/04/23 09:33:06;;;;;;;7.40;2.15;;;;;;;20.59;33.95;96838.31;5091470;28;20108;-50
2022/04/23 09:35:32;;;;;;;8.65;3.63;;;;;;;20.77;34.51;96839.13;5090199;28;20581;-50
2022/04/23 09:38:14;;;;;;;7.15;2.55;;;;;;;20.99;34.25;96832.06;5091270;28;20052;-50
2022/04/23 09:40:40;;;;;;;5.88;2.50;;;;;;;21.13;34.25;96838.06;5090141;28;20107;-50
2022/04/23 09:43:10;;;;;;;9.00;2.40;;;;;;;21.47;33.49;96833.78;5091368;28;20024;-51
2022/04/23 09:45:43;;;;;;;10.23;2.72;;;;;;;22.02;32.78;96826.91;5091654;28;20431;-50
2022/04/23 09:48:12;;;;;;;8.13;2.42;;;;;;;22.49;31.91;96808.91;5091382;28;20027;-50
2022/04/23 09:50:42;;;;;;;8.98;2.63;;;;;;;22.73;31.72;96799.50;5091211;28;20023;-50
2022/04/23 09:53:16;;;;;;;8.43;2.13;;;;;;;23.94;30.67;96796.81;5090037;28;20036;-50
2022/04/23 09:55:42;;;;;;;8.43;2.47;;;;;;;25.81;27.56;96804.81;5093606;28;20031;-51
2022/04/23 09:58:09;;;;;;;6.60;2.40;;;;;;;25.62;26.46;96808.97;5093533;28;20031;-51
2022/04/23 10:00:46;;;;;;;5.55;2.40;;;;;;;24.90;27.02;96803.56;5093489;28;20024;-51
2022/04/23 10:03:13;;;;;;;14.00;4.25;;;;;;;24.50;27.31;96807.00;5094834;28;20405;-51
2022/04/23 10:05:46;;;;;;;8.07;2.47;;;;;;;24.23;27.71;96806.53;5094682;28;20016;-50
2022/04/23 10:08:16;;;;;;;8.70;3.20;;;;;;;23.99;28.55;96807.31;5094711;28;20047;-51
2022/04/23 10:11:11;;;;;;;6.28;2.60;;;;;;;23.61;28.53;96800.31;5094584;28;20478;-51
2022/04/23 10:13:40;;;;;;;4.43;1.63;;;;;;;23.17;29.10;96818.69;5094698;28;20032;-51
2022/04/23 10:16:07;;;;;;;6.90;2.05;;;;;;;22.66;30.56;96815.28;5094506;28;20498;-51
2022/04/23 10:18:38;;;;;;;8.30;4.15;;;;;;;22.29;30.73;96809.66;5094504;28;20152;-50
2022/04/23 10:21:08;;;;;;;6.35;3.70;;;;;;;22.08;30.72;96802.34;5093113;28;20043;-50
2022/04/23 10:23:40;;;;;;;7.57;2.00;;;;;;;22.10;31.03;96796.69;5094396;28;20027;-51
2022/04/23 10:26:25;;;;;;;5.60;3.03;;;;;;;22.45;30.43;96794.63;5094436;28;20389;-50
2022/04/23 10:28:51;;;;;;;6.10;2.80;;;;;;;22.79;29.80;96797.41;5094311;28;20039;-50
2022/04/23 10:31:18;;;;;;;8.95;3.75;;;;;;;23.07;28.85;96795.78;5094204;28;20017;-51
2022/04/23 10:33:54;;;;;;;3.90;1.70;;;;;;;23.31;28.34;96792.41;5094289;28;20031;-51
2022/04/23 10:36:22;;;;;;;5.75;1.40;;;;;;;23.41;28.27;96785.09;5092595;28;20489;-52
2022/04/23 10:38:53;;;;;;;9.85;4.38;;;;;;;23.44;28.35;96787.09;5092835;28;20081;-50
2022/04/23 10:41:21;;;;;;;11.60;3.58;;;;;;;23.66;28.46;96781.38;5094084;28;20031;-49
2022/04/23 10:43:49;;;;;;;9.77;3.85;;;;;;;24.02;28.11;96777.16;5093985;28;20024;-51
2022/04/23 10:46:41;;;;;;;5.45;1.77;;;;;;;24.38;27.38;96777.47;5092627;28;20119;-50
2022/04/23 10:49:21;;;;;;;4.75;1.35;;;;;;;24.13;27.30;96777.50;5091108;28;20119;-50
2022/04/23 10:51:53;;;;;;;5.75;2.20;;;;;;;23.68;28.04;96771.09;5092566;28;20023;-50
2022/04/23 10:54:21;;;;;;;10.65;2.90;;;;;;;23.50;28.56;96773.19;5093857;28;20389;-50
2022/04/23 10:56:57;;;;;;;2.40;1.15;;;;;;;23.28;28.50;96777.03;5093800;28;20024;-50
2022/04/23 10:59:48;;;;;;;10.07;1.50;;;;;;;23.10;28.90;96773.72;5093772;28;20035;-51
2022/04/23 11:02:29;;;;;;;3.95;1.70;;;;;;;22.96;29.41;96773.22;5086148;28;20425;-51
2022/04/23 11:14:07;;;;;;;4.60;1.60;;;;;;;23.49;28.25;96766.25;5093505;28;20158;-50
2022/04/23 11:16:34;;;;;;;4.32;1.20;;;;;;;23.35;28.55;96762.31;5092048;28;20028;-49
2022/04/23 11:19:01;;;;;;;2.97;1.40;;;;;;;23.24;28.49;96768.09;5093387;28;20439;-50
2022/04/23 11:21:29;;;;;;;3.95;1.40;;;;;;;23.30;28.90;96756.06;5093239;28;20024;-50
2022/04/23 11:23:57;;;;;;;5.72;1.30;;;;;;;23.36;28.69;96763.88;5091888;28;20098;-50
2022/04/23 11:26:44;;;;;;;5.50;1.58;;;;;;;23.29;29.27;96762.53;5093159;28;20024;-50
2022/04/23 11:29:10;;;;;;;7.57;2.00;;;;;;;23.09;29.55;96763.34;5093133;28;20020;-51
2022/04/23 11:31:36;;;;;;;4.13;1.40;;;;;;;22.99;29.70;96769.88;5092940;28;20023;-50
2022/04/23 11:34:04;;;;;;;4.05;1.33;;;;;;;23.04;29.83;96761.66;5093051;28;20024;-51
2022/04/23 11:36:36;;;;;;;5.07;1.70;;;;;;;22.99;29.90;96764.50;5092676;28;20048;-49
2022/04/23 11:39:10;;;;;;;2.88;1.17;;;;;;;22.95;29.72;96763.59;5091869;28;20081;-50
2022/04/23 11:41:44;;;;;;;3.97;1.40;;;;;;;22.87;30.74;96769.81;5091545;28;20480;-50
2022/04/23 11:44:47;;;;;;;3.55;0.90;;;;;;;22.70;31.17;96763.50;5091549;28;20027;-51
2022/04/23 11:47:27;;;;;;;1.58;0.73;;;;;;;22.48;31.31;96761.16;5092494;28;20131;-50
2022/04/23 11:49:52;;;;;;;4.18;0.85;;;;;;;22.52;31.36;96757.50;5091444;28;20027;-50
2022/04/23 11:52:18;;;;;;;2.72;0.80;;;;;;;22.98;30.93;96754.13;5091404;28;20024;-50
2022/04/23 11:54:45;;;;;;;1.75;0.60;;;;;;;23.41;30.48;96755.66;5091298;28;20032;-51
2022/04/23 11:57:17;;;;;;;2.08;0.80;;;;;;;23.69;30.10;96753.91;5092565;28;20078;-50
2022/04/23 11:59:45;;;;;;;2.10;1.00;;;;;;;23.72;29.74;96758.59;5091219;28;20020;-50